createdAt,value
2018-11-21T00:00:09.713Z,28.90
2018-11-21T00:02:38.024Z,29.57
2018-11-21T00:05:25.929Z,25.47
2018-11-21T00:08:14.697Z,26.23
2018-11-21T00:11:02.893Z,25.80
2018-11-21T00:13:50.636Z,26.07
2018-11-21T00:21:48.825Z,26.67
2018-11-21T00:24:36.435Z,28.33
2018-11-21T00:27:24.313Z,24.50
2018-11-21T00:30:13.859Z,27.37
2018-11-21T00:33:01.881Z,24.93
2018-11-21T00:35:30.514Z,25.20
2018-11-21T00:38:18.763Z,25.00
2018-11-21T00:40:47.235Z,24.13
2018-11-21T00:43:36.079Z,27.07
2018-11-21T00:46:16.772Z,29.10
2018-11-21T00:48:57.517Z,25.30
2018-11-21T00:51:38.495Z,26.67
2018-11-21T00:54:19.943Z,25.23
2018-11-21T00:57:00.956Z,25.23
2018-11-21T00:59:41.577Z,24.50
2018-11-21T01:02:22.221Z,27.37
2018-11-21T01:05:03.385Z,26.03
2018-11-21T01:07:31.816Z,26.30
2018-11-21T01:10:19.906Z,26.77
2018-11-21T01:13:07.641Z,24.87
2018-11-21T01:15:55.625Z,24.23
2018-11-21T01:18:24.115Z,26.10
2018-11-21T01:21:11.964Z,26.37
2018-11-21T01:23:59.682Z,25.83
2018-11-21T01:26:28.266Z,26.97
2018-11-21T01:31:46.460Z,29.10
2018-11-21T01:34:14.997Z,28.90
2018-11-21T01:36:43.483Z,25.93
2018-11-21T01:39:31.391Z,24.40
2018-11-21T01:41:59.817Z,27.57
2018-11-21T01:44:47.639Z,27.53
2018-11-21T01:47:35.454Z,26.33
2018-11-21T01:50:04.205Z,27.20
2018-11-21T01:52:51.972Z,28.77
2018-11-21T01:55:39.732Z,29.23
2018-11-21T02:04:22.614Z,29.63
2018-11-21T02:07:10.686Z,29.27
2018-11-21T02:09:39.054Z,31.87
2018-11-21T02:12:26.879Z,30.73
2018-11-21T02:15:14.975Z,33.10
2018-11-21T02:18:02.954Z,30.30
2018-11-21T02:20:50.989Z,29.23
2018-11-21T02:23:19.393Z,28.43
2018-11-21T02:25:47.890Z,32.47
2018-11-21T02:31:32.057Z,33.97
2018-11-21T02:34:19.824Z,30.93
2018-11-21T02:37:07.567Z,32.60
2018-11-21T02:39:55.348Z,36.80
2018-11-21T02:42:43.204Z,32.40
2018-11-21T02:45:31.012Z,32.80
2018-11-21T02:48:18.866Z,30.97
2018-11-21T02:51:06.918Z,36.30
2018-11-21T02:53:54.706Z,35.63
2018-11-21T02:56:42.559Z,35.67
2018-11-21T02:59:30.386Z,37.87
2018-11-21T03:02:18.252Z,34.17
2018-11-21T03:05:06.164Z,34.37
2018-11-21T03:07:34.770Z,33.30
2018-11-21T03:10:03.208Z,33.57
2018-11-21T03:12:51.451Z,34.03
2018-11-21T03:15:19.970Z,33.40
2018-11-21T03:20:55.648Z,33.97
2018-11-21T03:23:43.434Z,34.43
2018-11-21T03:26:31.627Z,34.23
2018-11-21T03:29:19.601Z,33.43
2018-11-21T03:32:07.415Z,32.77
2018-11-21T03:34:55.168Z,38.07
2018-11-21T03:40:36.292Z,35.27
2018-11-21T03:43:04.860Z,35.97
2018-11-21T03:45:33.476Z,37.23
2018-11-21T03:48:21.388Z,36.77
2018-11-21T03:50:49.976Z,36.30
2018-11-21T03:53:18.517Z,35.47
2018-11-21T03:56:06.384Z,37.60
2018-11-21T03:58:54.132Z,36.60
2018-11-21T04:01:42.019Z,35.27
2018-11-21T04:04:29.940Z,42.87
2018-11-21T04:06:59.096Z,38.97
2018-11-21T04:09:46.908Z,36.93
2018-11-21T04:12:15.482Z,39.67
2018-11-21T04:17:51.459Z,39.83
2018-11-21T04:20:39.183Z,40.70
2018-11-21T04:23:27.006Z,37.00
2018-11-21T04:26:16.202Z,39.53
2018-11-21T04:29:04.183Z,36.37
2018-11-21T04:31:52.171Z,38.53
2018-11-21T04:34:40.149Z,38.00
2018-11-21T04:37:28.076Z,37.33
2018-11-21T04:39:56.513Z,35.73
2018-11-21T04:42:45.977Z,39.67
2018-11-21T04:45:34.177Z,39.20
2018-11-21T04:48:22.152Z,39.83
2018-11-21T04:51:09.967Z,37.97
2018-11-21T04:53:58.232Z,38.80
2018-11-21T04:56:46.346Z,40.60
2018-11-21T04:59:34.196Z,39.63
2018-11-21T05:02:22.227Z,36.97
2018-11-21T05:05:11.203Z,37.40
2018-11-21T05:07:59.155Z,40.83
2018-11-21T05:10:47.241Z,36.27
2018-11-21T05:13:35.329Z,38.90
2018-11-21T05:16:23.231Z,39.07
2018-11-21T05:19:11.129Z,37.40
2018-11-21T05:21:58.986Z,38.73
2018-11-21T05:24:27.476Z,38.30
2018-11-21T05:27:15.242Z,41.17
2018-11-21T05:30:03.151Z,39.07
2018-11-21T05:32:31.554Z,39.20
2018-11-21T05:35:00.144Z,37.93
2018-11-21T05:37:48.767Z,36.83
2018-11-21T05:40:36.477Z,37.27
2018-11-21T05:43:24.201Z,37.57
2018-11-21T05:46:11.994Z,41.07
2018-11-21T05:49:00.217Z,37.33
2018-11-21T05:51:48.120Z,37.93
2018-11-21T05:54:36.030Z,39.33
2018-11-21T05:57:23.719Z,36.53
2018-11-21T06:00:15.713Z,41.20
2018-11-21T06:02:44.444Z,41.00
2018-11-21T06:05:13.131Z,42.07
2018-11-21T06:08:01.189Z,38.43
2018-11-21T06:10:29.785Z,41.93
2018-11-21T06:13:17.913Z,42.57
2018-11-21T06:15:46.660Z,39.60
2018-11-21T06:19:05.084Z,42.23
2018-11-21T06:21:33.450Z,43.80
2018-11-21T06:24:21.573Z,36.50
2018-11-21T06:27:09.601Z,41.60
2018-11-21T06:29:57.459Z,37.97
2018-11-21T06:32:45.398Z,42.27
2018-11-21T06:35:33.410Z,42.53
2018-11-21T06:38:21.246Z,39.00
2018-11-21T06:41:09.226Z,40.87
2018-11-21T06:43:56.956Z,43.77
2018-11-21T06:46:25.988Z,43.83
2018-11-21T06:49:14.329Z,42.07
2018-11-21T06:52:02.150Z,42.57
2018-11-21T06:54:50.072Z,41.97
2018-11-21T06:57:40.795Z,39.70
2018-11-21T07:00:28.684Z,41.33
2018-11-21T07:02:57.297Z,40.23
2018-11-21T07:05:25.586Z,47.27
2018-11-21T07:08:14.175Z,41.50
2018-11-21T07:11:01.978Z,43.77
2018-11-21T07:13:49.852Z,42.33
2018-11-21T07:16:18.251Z,44.83
2018-11-21T07:19:06.779Z,40.60
2018-11-21T07:21:55.140Z,42.30
2018-11-21T07:24:26.348Z,41.53
2018-11-21T07:27:11.493Z,41.67
2018-11-21T07:29:59.701Z,40.10
2018-11-21T07:32:48.352Z,41.70
2018-11-21T07:38:43.096Z,41.93
2018-11-21T07:41:30.980Z,41.23
2018-11-21T07:47:08.340Z,42.33
2018-11-21T07:49:56.205Z,46.17
2018-11-21T07:52:44.147Z,45.87
2018-11-21T07:55:31.914Z,42.93
2018-11-21T08:01:34.555Z,39.43
2018-11-21T08:04:41.634Z,42.13
2018-11-21T08:07:29.226Z,44.67
2018-11-21T08:10:16.677Z,42.13
2018-11-21T08:13:17.316Z,44.20
2018-11-21T08:19:19.847Z,42.87
2018-11-21T08:22:20.073Z,44.77
2018-11-21T08:25:08.105Z,46.60
2018-11-21T08:28:15.168Z,44.27
2018-11-21T08:31:02.822Z,45.20
2018-11-21T08:33:50.682Z,45.27
2018-11-21T08:36:38.402Z,43.33
2018-11-21T08:39:26.113Z,40.97
2018-11-21T08:45:08.022Z,44.37
2018-11-21T08:47:55.807Z,45.27
2018-11-21T08:50:43.586Z,41.73
2018-11-21T08:53:31.573Z,44.40
2018-11-21T08:56:19.517Z,46.13
2018-11-21T08:59:07.491Z,41.27
2018-11-21T09:01:55.246Z,43.20
2018-11-21T09:04:43.105Z,42.30
2018-11-21T09:07:11.485Z,42.80
2018-11-21T09:09:39.884Z,38.57
2018-11-21T09:12:08.824Z,38.97
2018-11-21T09:14:56.361Z,42.70
2018-11-21T09:17:45.012Z,43.23
2018-11-21T09:20:14.726Z,40.97
2018-11-21T09:23:02.507Z,40.63
2018-11-21T09:25:31.072Z,44.60
2018-11-21T09:28:18.878Z,43.00
2018-11-21T09:31:06.812Z,40.00
2018-11-21T09:33:54.484Z,43.97
2018-11-21T09:36:42.307Z,41.20
2018-11-21T09:39:30.607Z,40.23
2018-11-21T09:42:27.332Z,41.13
2018-11-21T09:44:57.993Z,40.50
2018-11-21T09:47:26.466Z,39.70
2018-11-21T09:49:57.736Z,40.00
2018-11-21T09:53:05.969Z,41.67
2018-11-21T09:55:54.480Z,40.20
2018-11-21T09:58:42.520Z,41.47
2018-11-21T10:01:49.749Z,42.10
2018-11-21T10:04:39.080Z,38.33
2018-11-21T10:07:06.201Z,38.73
2018-11-21T10:09:39.214Z,41.00
2018-11-21T10:12:27.401Z,40.57
2018-11-21T10:15:16.987Z,42.67
2018-11-21T10:17:46.182Z,37.90
2018-11-21T10:20:14.818Z,41.93
2018-11-21T10:23:02.794Z,41.37
2018-11-21T10:25:31.387Z,38.63
2018-11-21T10:28:19.651Z,40.67
2018-11-21T10:31:07.450Z,42.87
2018-11-21T10:33:36.183Z,38.63
2018-11-21T10:36:24.281Z,40.27
2018-11-21T10:39:12.629Z,39.80
2018-11-21T10:42:00.439Z,44.60
2018-11-21T10:44:29.492Z,39.17
2018-11-21T10:47:17.615Z,39.27
2018-11-21T10:52:41.724Z,37.77
2018-11-21T10:55:30.070Z,39.87
2018-11-21T10:58:18.405Z,43.53
2018-11-21T11:01:25.497Z,43.40
2018-11-21T11:04:18.487Z,42.10
2018-11-21T11:07:26.201Z,40.70
2018-11-21T11:10:33.276Z,36.57
2018-11-21T11:13:40.526Z,38.97
2018-11-21T11:16:28.452Z,39.07
2018-11-21T11:19:19.466Z,41.67
2018-11-21T11:22:26.566Z,42.50
2018-11-21T11:25:34.123Z,41.73
2018-11-21T11:28:41.700Z,39.33
2018-11-21T11:31:48.966Z,39.03
2018-11-21T11:34:56.510Z,40.70
2018-11-21T11:38:11.608Z,41.57
2018-11-21T11:41:16.801Z,40.43
2018-11-21T11:44:24.015Z,40.33
2018-11-21T11:47:35.701Z,39.03
2018-11-21T11:50:42.799Z,44.77
2018-11-21T11:53:33.228Z,40.73
2018-11-21T11:56:40.823Z,42.30
2018-11-21T11:59:48.389Z,38.17
2018-11-21T12:02:36.618Z,43.23
2018-11-21T12:05:43.820Z,39.13
2018-11-21T12:08:25.261Z,41.77
2018-11-21T12:11:32.571Z,38.90
2018-11-21T12:14:42.918Z,41.37
2018-11-21T12:17:50.581Z,37.67
2018-11-21T12:20:57.837Z,37.97
2018-11-21T12:24:26.704Z,37.23
2018-11-21T12:27:35.064Z,38.37
2018-11-21T12:30:42.103Z,37.30
2018-11-21T12:33:49.298Z,43.73
2018-11-21T12:36:56.759Z,38.03
2018-11-21T12:40:04.373Z,40.43
2018-11-21T12:43:13.609Z,40.47
2018-11-21T12:46:20.927Z,37.40
2018-11-21T12:49:28.393Z,37.40
2018-11-21T12:55:30.899Z,37.80
2018-11-21T12:58:38.404Z,38.93
2018-11-21T13:01:45.498Z,39.30
2018-11-21T13:07:55.456Z,37.87
2018-11-21T13:11:02.514Z,36.23
2018-11-21T13:14:09.763Z,35.73
2018-11-21T13:17:17.062Z,40.10
2018-11-21T13:20:24.159Z,38.70
2018-11-21T13:23:31.686Z,38.80
2018-11-21T13:26:38.750Z,38.00
2018-11-21T13:29:45.836Z,39.83
2018-11-21T13:32:53.091Z,37.93
2018-11-21T13:36:00.303Z,39.27
2018-11-21T13:39:07.858Z,41.00
2018-11-21T13:42:16.409Z,37.97
2018-11-21T13:45:08.888Z,42.93
2018-11-21T13:48:16.528Z,38.40
2018-11-21T13:51:33.496Z,37.10
2018-11-21T14:03:37.226Z,40.80
2018-11-21T14:06:33.148Z,37.00
2018-11-21T14:09:44.088Z,41.67
2018-11-21T14:12:31.006Z,36.73
2018-11-21T14:18:10.076Z,35.17
2018-11-21T14:20:58.802Z,41.23
2018-11-21T14:23:47.578Z,35.83
2018-11-21T14:30:02.903Z,38.73
2018-11-21T14:32:51.273Z,37.27
2018-11-21T14:35:39.477Z,35.77
2018-11-21T14:41:26.795Z,37.60
2018-11-21T14:44:14.977Z,38.47
2018-11-21T14:47:22.725Z,37.83
2018-11-21T14:50:33.332Z,40.57
2018-11-21T14:53:22.160Z,39.00
2018-11-21T14:56:10.417Z,37.17
2018-11-21T15:02:06.063Z,38.40
2018-11-21T15:04:59.483Z,35.13
2018-11-21T15:07:48.924Z,40.13
2018-11-21T15:10:37.779Z,35.77
2018-11-21T15:13:26.117Z,39.90
2018-11-21T15:19:23.854Z,36.90
2018-11-21T15:22:12.166Z,36.27
2018-11-21T15:25:00.263Z,37.37
2018-11-21T15:27:49.189Z,37.50
2018-11-21T15:33:44.742Z,38.70
2018-11-21T15:39:40.577Z,38.77
2018-11-21T15:42:47.125Z,40.80
2018-11-21T15:45:21.740Z,35.47
2018-11-21T15:48:09.874Z,35.93
2018-11-21T15:50:55.706Z,39.50
2018-11-21T15:53:44.005Z,36.10
2018-11-21T15:56:51.216Z,37.73
2018-11-21T15:59:39.922Z,37.03
2018-11-21T16:02:28.119Z,41.43
2018-11-21T16:05:17.017Z,38.40
2018-11-21T16:07:54.021Z,36.77
2018-11-21T16:10:46.289Z,37.57
2018-11-21T16:13:15.479Z,36.83
2018-11-21T16:16:04.015Z,40.77
2018-11-21T16:18:33.561Z,40.93
2018-11-21T16:21:21.751Z,39.00
2018-11-21T16:24:09.905Z,36.40
2018-11-21T16:26:58.237Z,34.93
2018-11-21T16:29:46.667Z,39.07
2018-11-21T16:32:34.614Z,38.53
2018-11-21T16:35:23.233Z,40.73
2018-11-21T16:38:18.898Z,42.83
2018-11-21T16:41:06.914Z,42.20
2018-11-21T16:43:54.801Z,36.97
2018-11-21T16:46:27.098Z,36.00
2018-11-21T16:49:15.603Z,36.00
2018-11-21T16:52:04.265Z,41.77
2018-11-21T16:54:52.351Z,39.93
2018-11-21T16:57:40.395Z,38.20
2018-11-21T17:00:29.991Z,43.43
2018-11-21T17:06:13.217Z,40.03
2018-11-21T17:09:01.064Z,38.00
2018-11-21T17:11:30.337Z,39.47
2018-11-21T17:14:21.999Z,42.07
2018-11-21T17:17:27.427Z,37.73
2018-11-21T17:20:37.564Z,40.03
2018-11-21T17:23:25.669Z,39.33
2018-11-21T17:29:08.898Z,36.50
2018-11-21T17:35:03.560Z,39.97
2018-11-21T17:37:56.182Z,40.17
2018-11-21T17:40:44.596Z,40.13
2018-11-21T17:43:32.796Z,39.03
2018-11-21T17:46:22.110Z,37.23
2018-11-21T17:49:09.824Z,43.30
2018-11-21T17:51:58.001Z,43.37
2018-11-21T17:54:46.309Z,40.00
2018-11-21T17:57:34.937Z,41.70
2018-11-21T18:00:24.788Z,44.27
2018-11-21T18:09:16.098Z,40.70
2018-11-21T18:12:07.936Z,39.77
2018-11-21T18:14:39.488Z,42.37
2018-11-21T18:17:27.490Z,45.80
2018-11-21T18:20:16.867Z,40.57
2018-11-21T18:23:04.777Z,42.03
2018-11-21T18:25:52.890Z,43.57
2018-11-21T18:28:22.082Z,42.43
2018-11-21T18:31:17.840Z,44.37
2018-11-21T18:34:06.308Z,41.23
2018-11-21T18:36:54.441Z,43.33
2018-11-21T18:39:45.548Z,43.83
2018-11-21T18:45:30.240Z,41.23
2018-11-21T18:50:54.549Z,45.53
2018-11-21T18:53:41.220Z,46.57
2018-11-21T18:56:30.926Z,42.27
2018-11-21T18:59:21.371Z,44.40
2018-11-21T19:02:09.413Z,46.47
2018-11-21T19:04:57.255Z,43.00
2018-11-21T19:07:29.398Z,47.20
2018-11-21T19:10:27.700Z,46.00
2018-11-21T19:12:59.132Z,43.90
2018-11-21T19:15:44.706Z,47.83
2018-11-21T19:18:34.583Z,45.30
2018-11-21T19:21:22.821Z,46.33
2018-11-21T19:23:52.262Z,46.23
2018-11-21T19:26:40.058Z,48.13
2018-11-21T19:29:33.074Z,48.27
2018-11-21T19:32:20.918Z,46.23
2018-11-21T19:35:06.177Z,46.27
2018-11-21T19:38:22.038Z,46.27
2018-11-21T19:41:09.871Z,49.03
2018-11-21T19:43:58.805Z,50.17
2018-11-21T19:46:46.914Z,48.10
2018-11-21T19:49:19.324Z,48.20
2018-11-21T19:52:07.419Z,47.10
2018-11-21T19:54:55.462Z,45.20
2018-11-21T19:57:44.923Z,47.33
2018-11-21T20:00:33.976Z,48.70
2018-11-21T20:03:21.840Z,45.67
2018-11-21T20:06:10.427Z,41.77
2018-11-21T20:08:58.330Z,45.53
2018-11-21T20:11:47.565Z,45.67
2018-11-21T20:14:35.496Z,48.03
2018-11-21T20:17:23.306Z,45.47
2018-11-21T20:20:13.291Z,45.70
2018-11-21T20:23:06.468Z,47.53
2018-11-21T20:25:49.488Z,47.10
2018-11-21T20:28:37.634Z,44.00
2018-11-21T20:31:31.057Z,46.10
2018-11-21T20:34:19.249Z,45.23
2018-11-21T20:37:07.360Z,46.30
2018-11-21T20:39:55.196Z,42.00
2018-11-21T20:42:43.951Z,43.47
2018-11-21T20:45:16.548Z,47.87
2018-11-21T20:48:04.791Z,44.77
2018-11-21T20:50:52.840Z,43.27
2018-11-21T20:53:40.797Z,42.50
2018-11-21T20:56:29.001Z,47.17
2018-11-21T20:59:17.247Z,45.13
2018-11-21T21:02:05.542Z,41.27
2018-11-21T21:04:53.377Z,45.70
2018-11-21T21:07:22.628Z,47.57
2018-11-21T21:10:11.727Z,44.57
2018-11-21T21:12:59.716Z,47.07
2018-11-21T21:15:47.649Z,42.00
2018-11-21T21:18:35.612Z,43.90
2018-11-21T21:21:24.167Z,45.47
2018-11-21T21:24:12.300Z,44.00
2018-11-21T21:27:00.117Z,47.27
2018-11-21T21:29:48.364Z,44.00
2018-11-21T21:32:37.074Z,48.10
2018-11-21T21:38:45.409Z,47.60
2018-11-21T21:41:33.487Z,46.87
2018-11-21T21:47:47.284Z,46.07
2018-11-21T21:50:17.596Z,45.53
2018-11-21T21:52:46.216Z,43.93
2018-11-21T21:55:34.251Z,45.83
2018-11-21T21:58:02.928Z,43.90
2018-11-21T22:00:51.008Z,48.17
2018-11-21T22:03:20.462Z,60.43
2018-11-21T22:06:08.670Z,51.77
2018-11-21T22:08:56.602Z,45.80
2018-11-21T22:11:45.367Z,47.77
2018-11-21T22:14:33.385Z,47.07
2018-11-21T22:17:21.326Z,42.33
2018-11-21T22:19:49.780Z,44.13
2018-11-21T22:22:18.313Z,44.80
2018-11-21T22:25:06.436Z,42.93
2018-11-21T22:27:54.563Z,44.43
2018-11-21T22:30:42.507Z,46.10
2018-11-21T22:33:30.557Z,44.93
2018-11-21T22:36:18.760Z,43.10
2018-11-21T22:39:08.270Z,43.77
2018-11-21T22:41:56.369Z,43.97
2018-11-21T22:44:44.846Z,46.77
2018-11-21T22:47:32.902Z,42.57
2018-11-21T22:50:22.593Z,48.03
2018-11-21T22:52:51.373Z,44.00
2018-11-21T22:55:39.196Z,45.90
2018-11-21T22:58:07.853Z,45.07
2018-11-21T23:00:55.993Z,43.83
2018-11-21T23:06:39.628Z,44.80
2018-11-21T23:12:05.230Z,43.13
2018-11-21T23:14:53.415Z,48.97
2018-11-21T23:17:22.184Z,43.10
2018-11-21T23:20:11.981Z,45.27
2018-11-21T23:22:59.892Z,45.80
2018-11-21T23:25:48.022Z,47.47
2018-11-21T23:28:35.973Z,47.50
2018-11-21T23:31:24.268Z,45.07
2018-11-21T23:33:52.606Z,44.87
2018-11-21T23:36:41.019Z,41.73
2018-11-21T23:39:10.458Z,46.20
2018-11-21T23:41:58.335Z,47.03
2018-11-21T23:44:47.161Z,46.87
2018-11-21T23:47:35.065Z,45.67
2018-11-21T23:50:22.760Z,46.87
2018-11-21T23:53:10.850Z,45.00
2018-11-21T23:55:58.946Z,48.03
2018-11-21T23:58:47.298Z,49.03
